Chula, Georgia
Current Conditions -  °F | °C
As of 4:10 AM on Wednesday 22 Oct 2014 (Local Time) from KTMA Reporting Station
Clear Clear  
Wind Chill: 58°   Ceiling: Unl
Heat Index: 58°   Visibility: 10mi
Dew Point: 50°   Wind: 0mph
Humidity: 73%   Direction: NA
Pressure: 29.98"   Gusts: NA
Location:  31.55°N, 83.55°W
Report Text: KTMA 220810Z AUTO 00000KT 10SM CLR 15/10 A2998 RMK AO2 T01470100
Loading
Personal Weather Stations






























Interactive Weather Map
Tropical Storm Tracking
New forecast layout! Learn more

10-Day Weather Forecast

Advertisements
Track Severe Weather on mobile